sensor_id;sensor_type;location;lat;lon;timestamp;pressure;altitude;pressure_sealevel;temperature
24639;BMP180;1641;51.306;12.384;2022-09-01T00:00:23;100747.00;;;16.70
24639;BMP180;1641;51.306;12.384;2022-09-01T00:02:56;100763.00;;;16.80
24639;BMP180;1641;51.306;12.384;2022-09-01T00:05:21;100763.00;;;16.70
24639;BMP180;1641;51.306;12.384;2022-09-01T00:07:48;100763.00;;;17.00
24639;BMP180;1641;51.306;12.384;2022-09-01T00:10:17;100766.00;;;17.20
24639;BMP180;1641;51.306;12.384;2022-09-01T00:12:43;100767.00;;;16.90
24639;BMP180;1641;51.306;12.384;2022-09-01T00:15:10;100768.00;;;16.90
24639;BMP180;1641;51.306;12.384;2022-09-01T00:17:36;100768.00;;;16.70
24639;BMP180;1641;51.306;12.384;2022-09-01T00:20:03;100740.00;;;16.70
24639;BMP180;1641;51.306;12.384;2022-09-01T00:22:29;100761.00;;;16.90
24639;BMP180;1641;51.306;12.384;2022-09-01T00:24:54;100761.00;;;16.90
24639;BMP180;1641;51.306;12.384;2022-09-01T00:27:21;100763.00;;;16.80
24639;BMP180;1641;51.306;12.384;2022-09-01T00:29:47;100745.00;;;16.60
24639;BMP180;1641;51.306;12.384;2022-09-01T00:32:15;100770.00;;;16.80
24639;BMP180;1641;51.306;12.384;2022-09-01T00:34:40;100759.00;;;17.00
24639;BMP180;1641;51.306;12.384;2022-09-01T00:37:07;100750.00;;;17.00
24639;BMP180;1641;51.306;12.384;2022-09-01T00:39:32;100750.00;;;16.90
24639;BMP180;1641;51.306;12.384;2022-09-01T00:41:58;100754.00;;;16.90
24639;BMP180;1641;51.306;12.384;2022-09-01T00:44:26;100749.00;;;16.80
24639;BMP180;1641;51.306;12.384;2022-09-01T00:46:54;100749.00;;;16.70
24639;BMP180;1641;51.306;12.384;2022-09-01T00:49:29;100735.00;;;16.80
24639;BMP180;1641;51.306;12.384;2022-09-01T00:51:59;100755.00;;;16.60
24639;BMP180;1641;51.306;12.384;2022-09-01T00:54:30;100748.00;;;16.70
24639;BMP180;1641;51.306;12.384;2022-09-01T00:56:57;100756.00;;;16.60
24639;BMP180;1641;51.306;12.384;2022-09-01T00:59:23;100751.00;;;16.50
24639;BMP180;1641;51.306;12.384;2022-09-01T01:01:49;100753.00;;;16.30
24639;BMP180;1641;51.306;12.384;2022-09-01T01:04:14;100748.00;;;16.40
24639;BMP180;1641;51.306;12.384;2022-09-01T01:06:49;100750.00;;;16.60
24639;BMP180;1641;51.306;12.384;2022-09-01T01:09:22;100757.00;;;16.50
24639;BMP180;1641;51.306;12.384;2022-09-01T01:11:48;100751.00;;;16.50
24639;BMP180;1641;51.306;12.384;2022-09-01T01:14:15;100741.00;;;16.20
24639;BMP180;1641;51.306;12.384;2022-09-01T01:16:46;100735.00;;;16.40
24639;BMP180;1641;51.306;12.384;2022-09-01T01:22:07;100751.00;;;16.70
24639;BMP180;1641;51.306;12.384;2022-09-01T01:24:53;100748.00;;;16.90
24639;BMP180;1641;51.306;12.384;2022-09-01T01:27:23;100733.00;;;16.60
24639;BMP180;1641;51.306;12.384;2022-09-01T01:29:48;100738.00;;;16.50
24639;BMP180;1641;51.306;12.384;2022-09-01T01:32:15;100749.00;;;16.40
24639;BMP180;1641;51.306;12.384;2022-09-01T01:34:41;100751.00;;;16.00
24639;BMP180;1641;51.306;12.384;2022-09-01T01:37:10;100754.00;;;16.10
24639;BMP180;1641;51.306;12.384;2022-09-01T01:39:39;100752.00;;;16.30
24639;BMP180;1641;51.306;12.384;2022-09-01T01:42:06;100745.00;;;16.50
24639;BMP180;1641;51.306;12.384;2022-09-01T01:44:34;100726.00;;;16.60
24639;BMP180;1641;51.306;12.384;2022-09-01T01:47:03;100752.00;;;16.30
24639;BMP180;1641;51.306;12.384;2022-09-01T01:49:34;100741.00;;;16.00
24639;BMP180;1641;51.306;12.384;2022-09-01T01:52:00;100752.00;;;15.90
24639;BMP180;1641;51.306;12.384;2022-09-01T01:54:28;100752.00;;;15.90
24639;BMP180;1641;51.306;12.384;2022-09-01T01:56:55;100751.00;;;15.90
24639;BMP180;1641;51.306;12.384;2022-09-01T01:59:22;100757.00;;;15.80
24639;BMP180;1641;51.306;12.384;2022-09-01T02:01:49;100742.00;;;15.80
24639;BMP180;1641;51.306;12.384;2022-09-01T02:04:16;100726.00;;;16.20
24639;BMP180;1641;51.306;12.384;2022-09-01T02:06:42;100745.00;;;15.90
24639;BMP180;1641;51.306;12.384;2022-09-01T02:09:11;100732.00;;;15.90
24639;BMP180;1641;51.306;12.384;2022-09-01T02:11:36;100749.00;;;16.10
24639;BMP180;1641;51.306;12.384;2022-09-01T02:14:04;100741.00;;;16.20
24639;BMP180;1641;51.306;12.384;2022-09-01T02:16:30;100741.00;;;16.00
24639;BMP180;1641;51.306;12.384;2022-09-01T02:18:57;100736.00;;;15.90
24639;BMP180;1641;51.306;12.384;2022-09-01T02:21:23;100739.00;;;16.20
24639;BMP180;1641;51.306;12.384;2022-09-01T02:23:52;100742.00;;;16.20
24639;BMP180;1641;51.306;12.384;2022-09-01T02:26:32;100742.00;;;15.90
24639;BMP180;1641;51.306;12.384;2022-09-01T02:28:59;100740.00;;;16.00
24639;BMP180;1641;51.306;12.384;2022-09-01T02:31:29;100726.00;;;15.90
24639;BMP180;1641;51.306;12.384;2022-09-01T02:33:56;100740.00;;;16.00
24639;BMP180;1641;51.306;12.384;2022-09-01T02:36:22;100737.00;;;15.90
24639;BMP180;1641;51.306;12.384;2022-09-01T02:38:50;100734.00;;;16.00
24639;BMP180;1641;51.306;12.384;2022-09-01T02:41:16;100731.00;;;16.00
24639;BMP180;1641;51.306;12.384;2022-09-01T02:43:45;100720.00;;;15.80
24639;BMP180;1641;51.306;12.384;2022-09-01T02:46:11;100734.00;;;16.00
24639;BMP180;1641;51.306;12.384;2022-09-01T02:48:39;100726.00;;;15.80
24639;BMP180;1641;51.306;12.384;2022-09-01T02:51:09;100718.00;;;16.20
24639;BMP180;1641;51.306;12.384;2022-09-01T02:53:35;100729.00;;;15.70
24639;BMP180;1641;51.306;12.384;2022-09-01T02:56:02;100719.00;;;15.40
24639;BMP180;1641;51.306;12.384;2022-09-01T02:58:30;100727.00;;;15.50
24639;BMP180;1641;51.306;12.384;2022-09-01T03:00:57;100727.00;;;15.60
24639;BMP180;1641;51.306;12.384;2022-09-01T03:03:23;100726.00;;;15.70
24639;BMP180;1641;51.306;12.384;2022-09-01T03:05:52;100720.00;;;16.10
24639;BMP180;1641;51.306;12.384;2022-09-01T03:08:23;100728.00;;;16.00
24639;BMP180;1641;51.306;12.384;2022-09-01T03:10:49;100731.00;;;16.00
24639;BMP180;1641;51.306;12.384;2022-09-01T03:13:18;100730.00;;;16.00
24639;BMP180;1641;51.306;12.384;2022-09-01T03:15:45;100734.00;;;15.80
24639;BMP180;1641;51.306;12.384;2022-09-01T03:18:12;100736.00;;;15.50
24639;BMP180;1641;51.306;12.384;2022-09-01T03:20:40;100718.00;;;15.30
24639;BMP180;1641;51.306;12.384;2022-09-01T03:23:09;100726.00;;;15.00
24639;BMP180;1641;51.306;12.384;2022-09-01T03:25:36;100727.00;;;15.10
24639;BMP180;1641;51.306;12.384;2022-09-01T03:28:03;100725.00;;;14.90
24639;BMP180;1641;51.306;12.384;2022-09-01T03:30:29;100739.00;;;14.90
24639;BMP180;1641;51.306;12.384;2022-09-01T03:33:00;100726.00;;;14.80
24639;BMP180;1641;51.306;12.384;2022-09-01T03:35:27;100734.00;;;14.90
24639;BMP180;1641;51.306;12.384;2022-09-01T03:37:54;100717.00;;;14.90
24639;BMP180;1641;51.306;12.384;2022-09-01T03:40:22;100733.00;;;15.20
24639;BMP180;1641;51.306;12.384;2022-09-01T03:42:47;100730.00;;;15.30
24639;BMP180;1641;51.306;12.384;2022-09-01T03:45:12;100733.00;;;15.30
24639;BMP180;1641;51.306;12.384;2022-09-01T03:47:41;100731.00;;;15.10
24639;BMP180;1641;51.306;12.384;2022-09-01T03:50:11;100725.00;;;15.10
24639;BMP180;1641;51.306;12.384;2022-09-01T03:52:48;100709.00;;;15.20
24639;BMP180;1641;51.306;12.384;2022-09-01T03:55:19;100720.00;;;15.10
24639;BMP180;1641;51.306;12.384;2022-09-01T03:57:54;100736.00;;;15.30
24639;BMP180;1641;51.306;12.384;2022-09-01T04:00:21;100739.00;;;15.30
24639;BMP180;1641;51.306;12.384;2022-09-01T04:02:49;100736.00;;;15.10
24639;BMP180;1641;51.306;12.384;2022-09-01T04:05:16;100731.00;;;15.30
24639;BMP180;1641;51.306;12.384;2022-09-01T04:07:42;100731.00;;;15.10
24639;BMP180;1641;51.306;12.384;2022-09-01T04:10:09;100732.00;;;15.20
24639;BMP180;1641;51.306;12.384;2022-09-01T04:12:37;100733.00;;;15.20
24639;BMP180;1641;51.306;12.384;2022-09-01T04:15:03;100732.00;;;15.50
24639;BMP180;1641;51.306;12.384;2022-09-01T04:17:28;100736.00;;;15.70
24639;BMP180;1641;51.306;12.384;2022-09-01T04:20:12;100729.00;;;15.50
24639;BMP180;1641;51.306;12.384;2022-09-01T04:22:39;100734.00;;;15.30
24639;BMP180;1641;51.306;12.384;2022-09-01T04:25:05;100736.00;;;15.40
24639;BMP180;1641;51.306;12.384;2022-09-01T04:27:30;100739.00;;;15.10
24639;BMP180;1641;51.306;12.384;2022-09-01T04:29:56;100730.00;;;15.00
24639;BMP180;1641;51.306;12.384;2022-09-01T04:32:21;100714.00;;;15.00
24639;BMP180;1641;51.306;12.384;2022-09-01T04:34:48;100732.00;;;15.00
24639;BMP180;1641;51.306;12.384;2022-09-01T04:37:17;100734.00;;;14.90
24639;BMP180;1641;51.306;12.384;2022-09-01T04:39:48;100718.00;;;14.80
24639;BMP180;1641;51.306;12.384;2022-09-01T04:42:14;100732.00;;;14.80
24639;BMP180;1641;51.306;12.384;2022-09-01T04:44:41;100741.00;;;15.10
24639;BMP180;1641;51.306;12.384;2022-09-01T04:47:06;100743.00;;;15.00
24639;BMP180;1641;51.306;12.384;2022-09-01T04:49:35;100747.00;;;14.30
24639;BMP180;1641;51.306;12.384;2022-09-01T04:52:02;100752.00;;;14.50
24639;BMP180;1641;51.306;12.384;2022-09-01T04:54:27;100756.00;;;15.00
24639;BMP180;1641;51.306;12.384;2022-09-01T04:56:52;100754.00;;;15.10
24639;BMP180;1641;51.306;12.384;2022-09-01T04:59:20;100754.00;;;15.50
24639;BMP180;1641;51.306;12.384;2022-09-01T05:01:46;100723.00;;;15.60
24639;BMP180;1641;51.306;12.384;2022-09-01T05:04:19;100758.00;;;15.20
24639;BMP180;1641;51.306;12.384;2022-09-01T05:06:48;100756.00;;;15.30
24639;BMP180;1641;51.306;12.384;2022-09-01T05:09:16;100743.00;;;15.10
24639;BMP180;1641;51.306;12.384;2022-09-01T05:11:42;100749.00;;;15.40
24639;BMP180;1641;51.306;12.384;2022-09-01T05:14:10;100734.00;;;15.40
24639;BMP180;1641;51.306;12.384;2022-09-01T05:16:36;100749.00;;;15.70
24639;BMP180;1641;51.306;12.384;2022-09-01T05:19:05;100746.00;;;15.70
24639;BMP180;1641;51.306;12.384;2022-09-01T05:21:31;100750.00;;;15.70
24639;BMP180;1641;51.306;12.384;2022-09-01T05:23:58;100761.00;;;15.90
24639;BMP180;1641;51.306;12.384;2022-09-01T05:26:30;100756.00;;;16.00
24639;BMP180;1641;51.306;12.384;2022-09-01T05:28:58;100753.00;;;16.00
24639;BMP180;1641;51.306;12.384;2022-09-01T05:31:25;100753.00;;;16.30
24639;BMP180;1641;51.306;12.384;2022-09-01T05:33:52;100744.00;;;16.10
24639;BMP180;1641;51.306;12.384;2022-09-01T05:36:21;100759.00;;;16.20
24639;BMP180;1641;51.306;12.384;2022-09-01T05:38:47;100765.00;;;16.40
24639;BMP180;1641;51.306;12.384;2022-09-01T05:41:15;100766.00;;;16.10
24639;BMP180;1641;51.306;12.384;2022-09-01T05:43:43;100760.00;;;16.30
24639;BMP180;1641;51.306;12.384;2022-09-01T05:46:15;100754.00;;;16.20
24639;BMP180;1641;51.306;12.384;2022-09-01T05:48:44;100763.00;;;16.50
24639;BMP180;1641;51.306;12.384;2022-09-01T05:51:11;100765.00;;;16.50
24639;BMP180;1641;51.306;12.384;2022-09-01T05:53:40;100766.00;;;16.50
24639;BMP180;1641;51.306;12.384;2022-09-01T05:56:07;100773.00;;;16.60
24639;BMP180;1641;51.306;12.384;2022-09-01T05:58:34;100758.00;;;17.10
24639;BMP180;1641;51.306;12.384;2022-09-01T06:01:01;100776.00;;;16.90
24639;BMP180;1641;51.306;12.384;2022-09-01T06:03:26;100771.00;;;17.20
24639;BMP180;1641;51.306;12.384;2022-09-01T06:05:54;100756.00;;;16.80
24639;BMP180;1641;51.306;12.384;2022-09-01T06:08:22;100779.00;;;17.00
24639;BMP180;1641;51.306;12.384;2022-09-01T06:10:50;100776.00;;;18.00
24639;BMP180;1641;51.306;12.384;2022-09-01T06:13:17;100780.00;;;19.60
24639;BMP180;1641;51.306;12.384;2022-09-01T06:15:47;100773.00;;;21.20
24639;BMP180;1641;51.306;12.384;2022-09-01T06:18:12;100761.00;;;22.00
24639;BMP180;1641;51.306;12.384;2022-09-01T06:20:42;100770.00;;;21.80
24639;BMP180;1641;51.306;12.384;2022-09-01T06:23:09;100757.00;;;21.40
24639;BMP180;1641;51.306;12.384;2022-09-01T06:25:37;100777.00;;;22.30
24639;BMP180;1641;51.306;12.384;2022-09-01T06:28:04;100784.00;;;22.40
24639;BMP180;1641;51.306;12.384;2022-09-01T06:30:30;100782.00;;;22.10
24639;BMP180;1641;51.306;12.384;2022-09-01T06:33:01;100790.00;;;22.30
24639;BMP180;1641;51.306;12.384;2022-09-01T06:35:26;100787.00;;;22.50
24639;BMP180;1641;51.306;12.384;2022-09-01T06:37:53;100783.00;;;23.80
24639;BMP180;1641;51.306;12.384;2022-09-01T06:40:21;100792.00;;;23.90
24639;BMP180;1641;51.306;12.384;2022-09-01T06:42:51;100782.00;;;22.70
24639;BMP180;1641;51.306;12.384;2022-09-01T06:45:18;100795.00;;;23.00
24639;BMP180;1641;51.306;12.384;2022-09-01T06:47:45;100793.00;;;23.70
24639;BMP180;1641;51.306;12.384;2022-09-01T06:50:13;100797.00;;;24.50
24639;BMP180;1641;51.306;12.384;2022-09-01T06:52:43;100795.00;;;23.90
24639;BMP180;1641;51.306;12.384;2022-09-01T06:55:13;100797.00;;;23.20
24639;BMP180;1641;51.306;12.384;2022-09-01T06:57:40;100797.00;;;24.60
24639;BMP180;1641;51.306;12.384;2022-09-01T07:00:13;100795.00;;;23.40
24639;BMP180;1641;51.306;12.384;2022-09-01T07:02:46;100799.00;;;23.40
24639;BMP180;1641;51.306;12.384;2022-09-01T07:05:14;100791.00;;;24.80
24639;BMP180;1641;51.306;12.384;2022-09-01T07:07:54;100790.00;;;24.60
24639;BMP180;1641;51.306;12.384;2022-09-01T07:10:24;100805.00;;;22.70
24639;BMP180;1641;51.306;12.384;2022-09-01T07:12:55;100800.00;;;22.80
24639;BMP180;1641;51.306;12.384;2022-09-01T07:15:21;100806.00;;;24.30
24639;BMP180;1641;51.306;12.384;2022-09-01T07:17:54;100792.00;;;23.80
24639;BMP180;1641;51.306;12.384;2022-09-01T07:20:23;100802.00;;;21.70
24639;BMP180;1641;51.306;12.384;2022-09-01T07:22:49;100797.00;;;22.90
24639;BMP180;1641;51.306;12.384;2022-09-01T07:25:15;100808.00;;;24.70
24639;BMP180;1641;51.306;12.384;2022-09-01T07:27:43;100808.00;;;25.40
24639;BMP180;1641;51.306;12.384;2022-09-01T07:30:14;100805.00;;;24.80
24639;BMP180;1641;51.306;12.384;2022-09-01T07:32:39;100810.00;;;24.70
24639;BMP180;1641;51.306;12.384;2022-09-01T07:35:07;100813.00;;;24.50
24639;BMP180;1641;51.306;12.384;2022-09-01T07:37:33;100814.00;;;22.10
24639;BMP180;1641;51.306;12.384;2022-09-01T07:40:07;100811.00;;;23.80
24639;BMP180;1641;51.306;12.384;2022-09-01T07:42:33;100827.00;;;23.90
24639;BMP180;1641;51.306;12.384;2022-09-01T07:44:59;100817.00;;;22.10
24639;BMP180;1641;51.306;12.384;2022-09-01T07:47:24;100819.00;;;22.50
24639;BMP180;1641;51.306;12.384;2022-09-01T07:49:50;100808.00;;;23.90
24639;BMP180;1641;51.306;12.384;2022-09-01T07:52:19;100818.00;;;24.00
24639;BMP180;1641;51.306;12.384;2022-09-01T07:54:44;100794.00;;;24.30
24639;BMP180;1641;51.306;12.384;2022-09-01T07:57:09;100824.00;;;25.90
24639;BMP180;1641;51.306;12.384;2022-09-01T07:59:44;100832.00;;;23.40
24639;BMP180;1641;51.306;12.384;2022-09-01T08:02:09;100827.00;;;22.40
24639;BMP180;1641;51.306;12.384;2022-09-01T08:04:35;100834.00;;;22.40
24639;BMP180;1641;51.306;12.384;2022-09-01T08:07:00;100835.00;;;21.50
24639;BMP180;1641;51.306;12.384;2022-09-01T08:09:28;100828.00;;;20.40
24639;BMP180;1641;51.306;12.384;2022-09-01T08:11:57;100845.00;;;21.30
24639;BMP180;1641;51.306;12.384;2022-09-01T08:14:25;100815.00;;;22.10
24639;BMP180;1641;51.306;12.384;2022-09-01T08:16:50;100832.00;;;21.90
24639;BMP180;1641;51.306;12.384;2022-09-01T08:19:15;100832.00;;;21.10
24639;BMP180;1641;51.306;12.384;2022-09-01T08:21:42;100832.00;;;22.00
24639;BMP180;1641;51.306;12.384;2022-09-01T08:24:07;100824.00;;;23.00
24639;BMP180;1641;51.306;12.384;2022-09-01T08:26:33;100825.00;;;24.00
24639;BMP180;1641;51.306;12.384;2022-09-01T08:28:58;100827.00;;;23.60
24639;BMP180;1641;51.306;12.384;2022-09-01T08:31:24;100801.00;;;22.50
24639;BMP180;1641;51.306;12.384;2022-09-01T08:33:50;100829.00;;;22.20
24639;BMP180;1641;51.306;12.384;2022-09-01T08:36:16;100828.00;;;22.30
24639;BMP180;1641;51.306;12.384;2022-09-01T08:38:42;100836.00;;;22.60
24639;BMP180;1641;51.306;12.384;2022-09-01T08:44:28;100834.00;;;22.00
24639;BMP180;1641;51.306;12.384;2022-09-01T08:47:04;100831.00;;;22.20
24639;BMP180;1641;51.306;12.384;2022-09-01T08:49:35;100830.00;;;21.20
24639;BMP180;1641;51.306;12.384;2022-09-01T08:52:13;100836.00;;;21.50
24639;BMP180;1641;51.306;12.384;2022-09-01T08:55:03;100823.00;;;23.80
24639;BMP180;1641;51.306;12.384;2022-09-01T08:57:32;100801.00;;;24.30
24639;BMP180;1641;51.306;12.384;2022-09-01T08:59:58;100820.00;;;24.50
24639;BMP180;1641;51.306;12.384;2022-09-01T09:08:42;100829.00;;;23.90
24639;BMP180;1641;51.306;12.384;2022-09-01T09:11:33;100831.00;;;23.50
24639;BMP180;1641;51.306;12.384;2022-09-01T09:16:52;100833.00;;;23.20
24639;BMP180;1641;51.306;12.384;2022-09-01T09:19:22;100812.00;;;22.80
24639;BMP180;1641;51.306;12.384;2022-09-01T09:21:50;100805.00;;;21.70
24639;BMP180;1641;51.306;12.384;2022-09-01T09:24:43;100838.00;;;22.20
24639;BMP180;1641;51.306;12.384;2022-09-01T09:29:54;100833.00;;;23.60
24639;BMP180;1641;51.306;12.384;2022-09-01T09:33:04;100833.00;;;23.30
24639;BMP180;1641;51.306;12.384;2022-09-01T09:40:36;100794.00;;;22.10
24639;BMP180;1641;51.306;12.384;2022-09-01T09:43:05;100820.00;;;21.90
24639;BMP180;1641;51.306;12.384;2022-09-01T09:45:39;100827.00;;;21.50
24639;BMP180;1641;51.306;12.384;2022-09-01T09:48:07;100830.00;;;21.50
24639;BMP180;1641;51.306;12.384;2022-09-01T09:50:39;100823.00;;;21.90
24639;BMP180;1641;51.306;12.384;2022-09-01T09:53:16;100813.00;;;22.80
24639;BMP180;1641;51.306;12.384;2022-09-01T09:56:15;100821.00;;;22.60
24639;BMP180;1641;51.306;12.384;2022-09-01T09:58:43;100803.00;;;22.50
24639;BMP180;1641;51.306;12.384;2022-09-01T10:01:29;100768.00;;;23.10
24639;BMP180;1641;51.306;12.384;2022-09-01T10:03:58;100816.00;;;22.80
24639;BMP180;1641;51.306;12.384;2022-09-01T10:06:34;100811.00;;;22.80
24639;BMP180;1641;51.306;12.384;2022-09-01T10:09:14;100815.00;;;22.10
24639;BMP180;1641;51.306;12.384;2022-09-01T10:11:48;100815.00;;;21.90
24639;BMP180;1641;51.306;12.384;2022-09-01T10:14:19;100810.00;;;22.30
24639;BMP180;1641;51.306;12.384;2022-09-01T10:16:50;100805.00;;;22.70
24639;BMP180;1641;51.306;12.384;2022-09-01T10:19:17;100804.00;;;23.00
24639;BMP180;1641;51.306;12.384;2022-09-01T10:21:44;100803.00;;;22.20
24639;BMP180;1641;51.306;12.384;2022-09-01T10:24:22;100774.00;;;22.20
24639;BMP180;1641;51.306;12.384;2022-09-01T10:26:56;100801.00;;;22.70
24639;BMP180;1641;51.306;12.384;2022-09-01T10:29:25;100796.00;;;22.50
24639;BMP180;1641;51.306;12.384;2022-09-01T10:31:53;100792.00;;;22.60
24639;BMP180;1641;51.306;12.384;2022-09-01T10:34:20;100798.00;;;23.20
24639;BMP180;1641;51.306;12.384;2022-09-01T10:36:46;100794.00;;;23.50
24639;BMP180;1641;51.306;12.384;2022-09-01T10:39:14;100801.00;;;23.00
24639;BMP180;1641;51.306;12.384;2022-09-01T10:42:07;100798.00;;;22.50
24639;BMP180;1641;51.306;12.384;2022-09-01T10:44:58;100790.00;;;22.30
24639;BMP180;1641;51.306;12.384;2022-09-01T10:47:28;100793.00;;;23.00
24639;BMP180;1641;51.306;12.384;2022-09-01T10:55:11;100786.00;;;23.10
24639;BMP180;1641;51.306;12.384;2022-09-01T10:57:59;100783.00;;;23.40
24639;BMP180;1641;51.306;12.384;2022-09-01T11:06:10;100787.00;;;22.60
24639;BMP180;1641;51.306;12.384;2022-09-01T11:09:03;100783.00;;;23.20
24639;BMP180;1641;51.306;12.384;2022-09-01T11:11:42;100781.00;;;23.00
24639;BMP180;1641;51.306;12.384;2022-09-01T11:14:27;100774.00;;;23.10
24639;BMP180;1641;51.306;12.384;2022-09-01T11:17:12;100771.00;;;23.80
24639;BMP180;1641;51.306;12.384;2022-09-01T11:19:44;100779.00;;;24.10
24639;BMP180;1641;51.306;12.384;2022-09-01T11:30:40;100787.00;;;23.70
24639;BMP180;1641;51.306;12.384;2022-09-01T11:35:42;100774.00;;;24.80
24639;BMP180;1641;51.306;12.384;2022-09-01T11:38:11;100770.00;;;24.50
24639;BMP180;1641;51.306;12.384;2022-09-01T11:40:38;100756.00;;;24.80
24639;BMP180;1641;51.306;12.384;2022-09-01T11:43:08;100774.00;;;23.70
24639;BMP180;1641;51.306;12.384;2022-09-01T11:45:49;100774.00;;;24.00
24639;BMP180;1641;51.306;12.384;2022-09-01T11:48:17;100752.00;;;23.70
24639;BMP180;1641;51.306;12.384;2022-09-01T11:50:42;100777.00;;;23.40
24639;BMP180;1641;51.306;12.384;2022-09-01T11:53:14;100773.00;;;23.50
24639;BMP180;1641;51.306;12.384;2022-09-01T11:55:50;100763.00;;;23.60
24639;BMP180;1641;51.306;12.384;2022-09-01T12:00:52;100784.00;;;23.00
24639;BMP180;1641;51.306;12.384;2022-09-01T12:03:27;100776.00;;;22.80
24639;BMP180;1641;51.306;12.384;2022-09-01T12:06:02;100741.00;;;22.60
24639;BMP180;1641;51.306;12.384;2022-09-01T12:08:31;100765.00;;;22.20
24639;BMP180;1641;51.306;12.384;2022-09-01T12:11:07;100784.00;;;22.40
24639;BMP180;1641;51.306;12.384;2022-09-01T12:13:34;100782.00;;;22.20
24639;BMP180;1641;51.306;12.384;2022-09-01T12:16:02;100785.00;;;22.70
24639;BMP180;1641;51.306;12.384;2022-09-01T12:18:31;100776.00;;;22.70
24639;BMP180;1641;51.306;12.384;2022-09-01T12:21:00;100783.00;;;22.90
24639;BMP180;1641;51.306;12.384;2022-09-01T12:23:34;100789.00;;;22.60
24639;BMP180;1641;51.306;12.384;2022-09-01T12:26:04;100782.00;;;22.50
24639;BMP180;1641;51.306;12.384;2022-09-01T12:28:31;100778.00;;;22.80
24639;BMP180;1641;51.306;12.384;2022-09-01T12:31:04;100780.00;;;23.00
24639;BMP180;1641;51.306;12.384;2022-09-01T12:33:31;100777.00;;;22.90
24639;BMP180;1641;51.306;12.384;2022-09-01T12:36:33;100765.00;;;22.80
24639;BMP180;1641;51.306;12.384;2022-09-01T12:41:45;100756.00;;;22.90
24639;BMP180;1641;51.306;12.384;2022-09-01T12:47:13;100762.00;;;23.30
24639;BMP180;1641;51.306;12.384;2022-09-01T12:49:41;100761.00;;;23.10
24639;BMP180;1641;51.306;12.384;2022-09-01T12:57:35;100762.00;;;23.30
24639;BMP180;1641;51.306;12.384;2022-09-01T13:02:41;100745.00;;;23.30
24639;BMP180;1641;51.306;12.384;2022-09-01T13:05:27;100751.00;;;23.90
24639;BMP180;1641;51.306;12.384;2022-09-01T13:07:54;100754.00;;;24.30
24639;BMP180;1641;51.306;12.384;2022-09-01T13:10:21;100756.00;;;24.00
24639;BMP180;1641;51.306;12.384;2022-09-01T13:12:47;100746.00;;;23.90
24639;BMP180;1641;51.306;12.384;2022-09-01T13:15:13;100733.00;;;24.20
24639;BMP180;1641;51.306;12.384;2022-09-01T13:17:38;100739.00;;;23.70
24639;BMP180;1641;51.306;12.384;2022-09-01T13:20:06;100745.00;;;24.00
24639;BMP180;1641;51.306;12.384;2022-09-01T13:22:33;100752.00;;;23.70
24639;BMP180;1641;51.306;12.384;2022-09-01T13:24:59;100740.00;;;24.30
24639;BMP180;1641;51.306;12.384;2022-09-01T13:27:24;100735.00;;;24.40
24639;BMP180;1641;51.306;12.384;2022-09-01T13:29:50;100732.00;;;24.30
24639;BMP180;1641;51.306;12.384;2022-09-01T13:32:16;100701.00;;;24.30
24639;BMP180;1641;51.306;12.384;2022-09-01T13:34:42;100724.00;;;24.60
24639;BMP180;1641;51.306;12.384;2022-09-01T13:37:07;100726.00;;;24.80
24639;BMP180;1641;51.306;12.384;2022-09-01T13:39:33;100725.00;;;25.20
24639;BMP180;1641;51.306;12.384;2022-09-01T13:41:58;100729.00;;;23.30
24639;BMP180;1641;51.306;12.384;2022-09-01T13:44:23;100728.00;;;24.00
24639;BMP180;1641;51.306;12.384;2022-09-01T13:46:48;100713.00;;;24.30
24639;BMP180;1641;51.306;12.384;2022-09-01T13:49:14;100717.00;;;24.40
24639;BMP180;1641;51.306;12.384;2022-09-01T13:51:39;100704.00;;;24.50
24639;BMP180;1641;51.306;12.384;2022-09-01T13:54:04;100717.00;;;24.00
24639;BMP180;1641;51.306;12.384;2022-09-01T13:56:30;100711.00;;;23.90
24639;BMP180;1641;51.306;12.384;2022-09-01T13:58:55;100706.00;;;24.60
24639;BMP180;1641;51.306;12.384;2022-09-01T14:01:20;100714.00;;;24.60
24639;BMP180;1641;51.306;12.384;2022-09-01T14:03:47;100707.00;;;24.90
24639;BMP180;1641;51.306;12.384;2022-09-01T14:06:14;100706.00;;;25.30
24639;BMP180;1641;51.306;12.384;2022-09-01T14:08:39;100711.00;;;25.50
24639;BMP180;1641;51.306;12.384;2022-09-01T14:11:05;100701.00;;;24.90
24639;BMP180;1641;51.306;12.384;2022-09-01T14:13:31;100704.00;;;24.40
24639;BMP180;1641;51.306;12.384;2022-09-01T14:15:57;100716.00;;;24.40
24639;BMP180;1641;51.306;12.384;2022-09-01T14:18:23;100714.00;;;24.30
24639;BMP180;1641;51.306;12.384;2022-09-01T14:21:00;100653.00;;;24.10
24639;BMP180;1641;51.306;12.384;2022-09-01T14:23:26;100695.00;;;23.40
24639;BMP180;1641;51.306;12.384;2022-09-01T14:25:52;100713.00;;;23.50
24639;BMP180;1641;51.306;12.384;2022-09-01T14:28:19;100710.00;;;23.70
24639;BMP180;1641;51.306;12.384;2022-09-01T14:30:44;100686.00;;;23.50
24639;BMP180;1641;51.306;12.384;2022-09-01T14:33:11;100699.00;;;23.80
24639;BMP180;1641;51.306;12.384;2022-09-01T14:35:39;100699.00;;;24.10
24639;BMP180;1641;51.306;12.384;2022-09-01T14:38:05;100706.00;;;24.10
24639;BMP180;1641;51.306;12.384;2022-09-01T14:40:32;100665.00;;;23.60
24639;BMP180;1641;51.306;12.384;2022-09-01T14:42:58;100705.00;;;24.00
24639;BMP180;1641;51.306;12.384;2022-09-01T14:45:26;100696.00;;;24.30
24639;BMP180;1641;51.306;12.384;2022-09-01T14:47:54;100700.00;;;24.00
24639;BMP180;1641;51.306;12.384;2022-09-01T14:50:21;100692.00;;;23.90
24639;BMP180;1641;51.306;12.384;2022-09-01T14:52:47;100685.00;;;23.80
24639;BMP180;1641;51.306;12.384;2022-09-01T14:55:13;100685.00;;;23.90
24639;BMP180;1641;51.306;12.384;2022-09-01T14:57:42;100696.00;;;24.00
24639;BMP180;1641;51.306;12.384;2022-09-01T15:00:09;100685.00;;;24.00
24639;BMP180;1641;51.306;12.384;2022-09-01T15:02:55;100683.00;;;24.30
24639;BMP180;1641;51.306;12.384;2022-09-01T15:05:27;100648.00;;;24.20
24639;BMP180;1641;51.306;12.384;2022-09-01T15:07:52;100662.00;;;23.80